sensor_id;sensor_type;location;lat;lon;timestamp;temperature;humidity
76269;DHT22;65088;52.352;4.846;2022-12-05T00:00:17;6.00;71.70
76269;DHT22;65088;52.352;4.846;2022-12-05T00:02:47;6.00;71.70
76269;DHT22;65088;52.352;4.846;2022-12-05T00:05:19;6.00;71.80
76269;DHT22;65088;52.352;4.846;2022-12-05T00:07:48;6.00;71.90
76269;DHT22;65088;52.352;4.846;2022-12-05T00:10:18;6.00;71.80
76269;DHT22;65088;52.352;4.846;2022-12-05T00:12:47;6.00;71.90
76269;DHT22;65088;52.352;4.846;2022-12-05T00:15:17;6.00;71.90
76269;DHT22;65088;52.352;4.846;2022-12-05T00:17:46;6.00;71.90
76269;DHT22;65088;52.352;4.846;2022-12-05T00:20:18;6.00;72.00
76269;DHT22;65088;52.352;4.846;2022-12-05T00:22:47;6.00;72.00
76269;DHT22;65088;52.352;4.846;2022-12-05T00:25:17;6.00;71.90
76269;DHT22;65088;52.352;4.846;2022-12-05T00:27:47;6.00;72.00
76269;DHT22;65088;52.352;4.846;2022-12-05T00:30:16;6.00;72.10
76269;DHT22;65088;52.352;4.846;2022-12-05T00:32:45;6.00;72.10
76269;DHT22;65088;52.352;4.846;2022-12-05T00:35:17;6.10;72.10
76269;DHT22;65088;52.352;4.846;2022-12-05T00:37:49;6.10;72.00
76269;DHT22;65088;52.352;4.846;2022-12-05T00:40:18;6.10;72.00
76269;DHT22;65088;52.352;4.846;2022-12-05T00:42:48;6.00;71.90
76269;DHT22;65088;52.352;4.846;2022-12-05T00:45:17;6.00;71.90
76269;DHT22;65088;52.352;4.846;2022-12-05T00:47:46;6.00;72.00
76269;DHT22;65088;52.352;4.846;2022-12-05T00:50:18;6.00;72.00
76269;DHT22;65088;52.352;4.846;2022-12-05T00:52:47;6.00;72.10
76269;DHT22;65088;52.352;4.846;2022-12-05T00:55:17;6.00;72.10
76269;DHT22;65088;52.352;4.846;2022-12-05T00:57:46;6.10;72.10
76269;DHT22;65088;52.352;4.846;2022-12-05T01:00:16;6.10;72.10
76269;DHT22;65088;52.352;4.846;2022-12-05T01:02:46;6.10;71.90
76269;DHT22;65088;52.352;4.846;2022-12-05T01:05:18;6.10;72.00
76269;DHT22;65088;52.352;4.846;2022-12-05T01:07:47;6.10;72.00
76269;DHT22;65088;52.352;4.846;2022-12-05T01:10:17;6.10;72.10
76269;DHT22;65088;52.352;4.846;2022-12-05T01:12:46;6.10;72.00
76269;DHT22;65088;52.352;4.846;2022-12-05T01:15:15;6.10;72.10
76269;DHT22;65088;52.352;4.846;2022-12-05T01:17:44;6.10;72.10
76269;DHT22;65088;52.352;4.846;2022-12-05T01:20:14;6.10;72.10
76269;DHT22;65088;52.352;4.846;2022-12-05T01:22:46;6.20;72.10
76269;DHT22;65088;52.352;4.846;2022-12-05T01:25:15;6.20;72.20
76269;DHT22;65088;52.352;4.846;2022-12-05T01:27:44;6.20;72.10
76269;DHT22;65088;52.352;4.846;2022-12-05T01:30:14;6.20;72.20
76269;DHT22;65088;52.352;4.846;2022-12-05T01:32:45;6.20;72.20
76269;DHT22;65088;52.352;4.846;2022-12-05T01:35:15;6.20;72.20
76269;DHT22;65088;52.352;4.846;2022-12-05T01:37:47;6.20;72.20
76269;DHT22;65088;52.352;4.846;2022-12-05T01:40:17;6.20;72.20
76269;DHT22;65088;52.352;4.846;2022-12-05T01:42:46;6.20;72.30
76269;DHT22;65088;52.352;4.846;2022-12-05T01:45:21;6.20;72.20
76269;DHT22;65088;52.352;4.846;2022-12-05T01:47:53;6.20;72.20
76269;DHT22;65088;52.352;4.846;2022-12-05T01:50:23;6.20;72.30
76269;DHT22;65088;52.352;4.846;2022-12-05T01:52:55;6.20;72.30
76269;DHT22;65088;52.352;4.846;2022-12-05T01:55:24;6.30;72.30
76269;DHT22;65088;52.352;4.846;2022-12-05T01:57:56;6.30;72.20
76269;DHT22;65088;52.352;4.846;2022-12-05T02:00:25;6.30;72.30
76269;DHT22;65088;52.352;4.846;2022-12-05T02:02:58;6.30;72.20
76269;DHT22;65088;52.352;4.846;2022-12-05T02:05:30;6.30;72.20
76269;DHT22;65088;52.352;4.846;2022-12-05T02:08:05;6.30;72.20
76269;DHT22;65088;52.352;4.846;2022-12-05T02:10:37;6.20;72.20
76269;DHT22;65088;52.352;4.846;2022-12-05T02:13:24;6.20;72.40
76269;DHT22;65088;52.352;4.846;2022-12-05T02:16:00;6.20;72.40
76269;DHT22;65088;52.352;4.846;2022-12-05T02:18:40;6.10;72.50
76269;DHT22;65088;52.352;4.846;2022-12-05T02:21:36;6.10;72.60
76269;DHT22;65088;52.352;4.846;2022-12-05T02:24:32;6.10;72.70
76269;DHT22;65088;52.352;4.846;2022-12-05T02:27:18;6.10;72.70
76269;DHT22;65088;52.352;4.846;2022-12-05T02:30:06;6.20;72.80
76269;DHT22;65088;52.352;4.846;2022-12-05T02:32:46;6.20;72.80
76269;DHT22;65088;52.352;4.846;2022-12-05T02:35:29;6.20;72.80
76269;DHT22;65088;52.352;4.846;2022-12-05T02:38:09;6.20;72.90
76269;DHT22;65088;52.352;4.846;2022-12-05T02:40:48;6.20;72.80
76269;DHT22;65088;52.352;4.846;2022-12-05T02:43:23;6.20;72.90
76269;DHT22;65088;52.352;4.846;2022-12-05T02:45:58;6.20;72.80
76269;DHT22;65088;52.352;4.846;2022-12-05T02:48:30;6.20;72.80
76269;DHT22;65088;52.352;4.846;2022-12-05T02:51:02;6.30;72.90
76269;DHT22;65088;52.352;4.846;2022-12-05T02:53:32;6.30;72.90
76269;DHT22;65088;52.352;4.846;2022-12-05T02:56:04;6.30;72.80
76269;DHT22;65088;52.352;4.846;2022-12-05T02:58:39;6.30;72.80
76269;DHT22;65088;52.352;4.846;2022-12-05T03:01:12;6.30;72.80
76269;DHT22;65088;52.352;4.846;2022-12-05T03:03:42;6.30;72.80
76269;DHT22;65088;52.352;4.846;2022-12-05T03:06:13;6.30;72.80
76269;DHT22;65088;52.352;4.846;2022-12-05T03:08:46;6.30;72.90
76269;DHT22;65088;52.352;4.846;2022-12-05T03:11:17;6.30;72.90
76269;DHT22;65088;52.352;4.846;2022-12-05T03:13:48;6.20;73.00
76269;DHT22;65088;52.352;4.846;2022-12-05T03:16:24;6.20;73.00
76269;DHT22;65088;52.352;4.846;2022-12-05T03:18:59;6.20;73.10
76269;DHT22;65088;52.352;4.846;2022-12-05T03:21:33;6.20;73.10
76269;DHT22;65088;52.352;4.846;2022-12-05T03:24:07;6.20;73.20
76269;DHT22;65088;52.352;4.846;2022-12-05T03:26:44;6.20;73.20
76269;DHT22;65088;52.352;4.846;2022-12-05T03:29:21;6.20;73.20
76269;DHT22;65088;52.352;4.846;2022-12-05T03:32:03;6.20;73.30
76269;DHT22;65088;52.352;4.846;2022-12-05T03:34:48;6.20;73.30
76269;DHT22;65088;52.352;4.846;2022-12-05T03:37:24;6.30;73.30
76269;DHT22;65088;52.352;4.846;2022-12-05T03:40:03;6.30;73.40
76269;DHT22;65088;52.352;4.846;2022-12-05T03:42:36;6.30;73.30
76269;DHT22;65088;52.352;4.846;2022-12-05T03:45:10;6.40;73.20
76269;DHT22;65088;52.352;4.846;2022-12-05T03:47:49;6.40;73.20
76269;DHT22;65088;52.352;4.846;2022-12-05T03:50:24;6.40;73.30
76269;DHT22;65088;52.352;4.846;2022-12-05T03:52:56;6.40;73.30
76269;DHT22;65088;52.352;4.846;2022-12-05T03:55:28;6.30;73.30
76269;DHT22;65088;52.352;4.846;2022-12-05T03:58:00;6.30;73.30
76269;DHT22;65088;52.352;4.846;2022-12-05T04:00:32;6.30;73.30
76269;DHT22;65088;52.352;4.846;2022-12-05T04:03:08;6.30;73.40
76269;DHT22;65088;52.352;4.846;2022-12-05T04:05:42;6.30;73.50
76269;DHT22;65088;52.352;4.846;2022-12-05T04:08:16;6.30;73.60
76269;DHT22;65088;52.352;4.846;2022-12-05T04:10:49;6.40;73.50
76269;DHT22;65088;52.352;4.846;2022-12-05T04:13:22;6.40;73.50
76269;DHT22;65088;52.352;4.846;2022-12-05T04:15:55;6.40;73.60
76269;DHT22;65088;52.352;4.846;2022-12-05T04:18:43;6.40;73.60
76269;DHT22;65088;52.352;4.846;2022-12-05T04:21:15;6.50;73.50
76269;DHT22;65088;52.352;4.846;2022-12-05T04:23:59;6.50;73.50
76269;DHT22;65088;52.352;4.846;2022-12-05T04:26:45;6.50;73.50
76269;DHT22;65088;52.352;4.846;2022-12-05T04:29:20;6.50;73.60
76269;DHT22;65088;52.352;4.846;2022-12-05T04:31:57;6.50;73.60
76269;DHT22;65088;52.352;4.846;2022-12-05T04:34:30;6.50;73.70
76269;DHT22;65088;52.352;4.846;2022-12-05T04:37:04;6.50;73.70
76269;DHT22;65088;52.352;4.846;2022-12-05T04:39:38;6.50;73.70
76269;DHT22;65088;52.352;4.846;2022-12-05T04:42:12;6.50;73.80
76269;DHT22;65088;52.352;4.846;2022-12-05T04:44:45;6.50;73.80
76269;DHT22;65088;52.352;4.846;2022-12-05T04:47:18;6.50;73.80
76269;DHT22;65088;52.352;4.846;2022-12-05T04:49:52;6.50;73.90
76269;DHT22;65088;52.352;4.846;2022-12-05T04:52:22;6.50;74.00
76269;DHT22;65088;52.352;4.846;2022-12-05T04:54:56;6.50;74.00
76269;DHT22;65088;52.352;4.846;2022-12-05T04:57:32;6.50;74.20
76269;DHT22;65088;52.352;4.846;2022-12-05T05:00:02;6.60;74.20
76269;DHT22;65088;52.352;4.846;2022-12-05T05:02:33;6.50;74.20
76269;DHT22;65088;52.352;4.846;2022-12-05T05:05:10;6.50;74.30
76269;DHT22;65088;52.352;4.846;2022-12-05T05:07:45;6.50;74.40
76269;DHT22;65088;52.352;4.846;2022-12-05T05:10:20;6.50;74.40
76269;DHT22;65088;52.352;4.846;2022-12-05T05:12:51;6.50;74.50
76269;DHT22;65088;52.352;4.846;2022-12-05T05:15:20;6.50;74.50
76269;DHT22;65088;52.352;4.846;2022-12-05T05:17:49;6.50;74.50
76269;DHT22;65088;52.352;4.846;2022-12-05T05:20:21;6.50;74.60
76269;DHT22;65088;52.352;4.846;2022-12-05T05:22:57;6.50;74.70
76269;DHT22;65088;52.352;4.846;2022-12-05T05:25:26;6.50;74.80
76269;DHT22;65088;52.352;4.846;2022-12-05T05:27:56;6.50;74.70
76269;DHT22;65088;52.352;4.846;2022-12-05T05:30:25;6.50;74.80
76269;DHT22;65088;52.352;4.846;2022-12-05T05:32:54;6.50;74.80
76269;DHT22;65088;52.352;4.846;2022-12-05T05:35:26;6.50;74.90
76269;DHT22;65088;52.352;4.846;2022-12-05T05:37:56;6.50;74.90
76269;DHT22;65088;52.352;4.846;2022-12-05T05:40:26;6.50;74.90
76269;DHT22;65088;52.352;4.846;2022-12-05T05:42:55;6.50;74.90
76269;DHT22;65088;52.352;4.846;2022-12-05T05:45:24;6.50;74.90
76269;DHT22;65088;52.352;4.846;2022-12-05T05:47:53;6.50;74.90
76269;DHT22;65088;52.352;4.846;2022-12-05T05:50:26;6.50;74.90
76269;DHT22;65088;52.352;4.846;2022-12-05T05:52:55;6.60;74.90
76269;DHT22;65088;52.352;4.846;2022-12-05T05:55:25;6.60;74.90
76269;DHT22;65088;52.352;4.846;2022-12-05T05:57:55;6.60;74.90
76269;DHT22;65088;52.352;4.846;2022-12-05T06:00:26;6.60;74.90
76269;DHT22;65088;52.352;4.846;2022-12-05T06:02:55;6.70;74.90
76269;DHT22;65088;52.352;4.846;2022-12-05T06:05:27;6.70;74.80
76269;DHT22;65088;52.352;4.846;2022-12-05T06:07:57;6.70;74.80
76269;DHT22;65088;52.352;4.846;2022-12-05T06:10:26;6.70;74.90
76269;DHT22;65088;52.352;4.846;2022-12-05T06:12:56;6.70;75.00
76269;DHT22;65088;52.352;4.846;2022-12-05T06:15:25;6.70;74.90
76269;DHT22;65088;52.352;4.846;2022-12-05T06:17:55;6.70;75.00
76269;DHT22;65088;52.352;4.846;2022-12-05T06:20:27;6.70;75.00
76269;DHT22;65088;52.352;4.846;2022-12-05T06:22:56;6.70;75.00
76269;DHT22;65088;52.352;4.846;2022-12-05T06:25:26;6.70;75.10
76269;DHT22;65088;52.352;4.846;2022-12-05T06:27:56;6.70;75.20
76269;DHT22;65088;52.352;4.846;2022-12-05T06:30:25;6.70;75.20
76269;DHT22;65088;52.352;4.846;2022-12-05T06:32:55;6.70;75.30
76269;DHT22;65088;52.352;4.846;2022-12-05T06:35:27;6.70;75.30
76269;DHT22;65088;52.352;4.846;2022-12-05T06:37:59;6.70;75.40
76269;DHT22;65088;52.352;4.846;2022-12-05T06:40:29;6.70;75.30
76269;DHT22;65088;52.352;4.846;2022-12-05T06:42:59;6.80;75.20
76269;DHT22;65088;52.352;4.846;2022-12-05T06:45:28;6.80;75.20
76269;DHT22;65088;52.352;4.846;2022-12-05T06:47:57;6.80;75.20
76269;DHT22;65088;52.352;4.846;2022-12-05T06:50:29;6.80;75.20
76269;DHT22;65088;52.352;4.846;2022-12-05T06:52:58;6.80;75.20
76269;DHT22;65088;52.352;4.846;2022-12-05T06:55:27;6.80;75.20
76269;DHT22;65088;52.352;4.846;2022-12-05T06:57:57;6.80;75.20
76269;DHT22;65088;52.352;4.846;2022-12-05T07:00:26;6.90;75.20
76269;DHT22;65088;52.352;4.846;2022-12-05T07:03:09;6.90;75.30
76269;DHT22;65088;52.352;4.846;2022-12-05T07:05:41;6.90;75.10
76269;DHT22;65088;52.352;4.846;2022-12-05T07:08:11;6.90;75.10
76269;DHT22;65088;52.352;4.846;2022-12-05T07:10:40;6.90;75.00
76269;DHT22;65088;52.352;4.846;2022-12-05T07:13:09;6.90;75.10
76269;DHT22;65088;52.352;4.846;2022-12-05T07:15:39;6.90;75.10
76269;DHT22;65088;52.352;4.846;2022-12-05T07:18:08;6.90;75.10
76269;DHT22;65088;52.352;4.846;2022-12-05T07:20:37;6.90;75.00
76269;DHT22;65088;52.352;4.846;2022-12-05T07:23:10;6.90;75.10
76269;DHT22;65088;52.352;4.846;2022-12-05T07:25:40;7.00;75.10
76269;DHT22;65088;52.352;4.846;2022-12-05T07:28:09;7.00;75.10
76269;DHT22;65088;52.352;4.846;2022-12-05T07:30:38;7.00;75.10
76269;DHT22;65088;52.352;4.846;2022-12-05T07:33:08;7.00;75.00
76269;DHT22;65088;52.352;4.846;2022-12-05T07:35:38;7.10;74.90
76269;DHT22;65088;52.352;4.846;2022-12-05T07:38:10;7.10;74.90
76269;DHT22;65088;52.352;4.846;2022-12-05T07:40:40;7.00;74.90
76269;DHT22;65088;52.352;4.846;2022-12-05T07:43:09;7.10;74.90
76269;DHT22;65088;52.352;4.846;2022-12-05T07:45:38;7.00;74.90
76269;DHT22;65088;52.352;4.846;2022-12-05T07:48:08;7.00;74.90
76269;DHT22;65088;52.352;4.846;2022-12-05T07:50:37;7.00;74.90
76269;DHT22;65088;52.352;4.846;2022-12-05T07:53:06;7.10;74.90
76269;DHT22;65088;52.352;4.846;2022-12-05T07:55:39;7.10;75.00
76269;DHT22;65088;52.352;4.846;2022-12-05T07:58:08;7.10;74.90
76269;DHT22;65088;52.352;4.846;2022-12-05T08:00:38;7.10;74.90
76269;DHT22;65088;52.352;4.846;2022-12-05T08:03:09;7.10;74.90
76269;DHT22;65088;52.352;4.846;2022-12-05T08:05:38;7.20;74.80
76269;DHT22;65088;52.352;4.846;2022-12-05T08:08:07;7.20;74.80
76269;DHT22;65088;52.352;4.846;2022-12-05T08:10:39;7.20;74.80
76269;DHT22;65088;52.352;4.846;2022-12-05T08:13:09;7.20;74.80
76269;DHT22;65088;52.352;4.846;2022-12-05T08:15:38;7.20;74.70
76269;DHT22;65088;52.352;4.846;2022-12-05T08:18:07;7.20;74.70
76269;DHT22;65088;52.352;4.846;2022-12-05T08:20:37;7.20;74.60
76269;DHT22;65088;52.352;4.846;2022-12-05T08:23:06;7.20;74.70
76269;DHT22;65088;52.352;4.846;2022-12-05T08:25:35;7.20;74.80
76269;DHT22;65088;52.352;4.846;2022-12-05T08:28:07;7.20;74.70
76269;DHT22;65088;52.352;4.846;2022-12-05T08:30:37;7.20;74.80
76269;DHT22;65088;52.352;4.846;2022-12-05T08:33:06;7.20;74.70
76269;DHT22;65088;52.352;4.846;2022-12-05T08:35:36;7.20;74.70
76269;DHT22;65088;52.352;4.846;2022-12-05T08:38:06;7.20;74.70
76269;DHT22;65088;52.352;4.846;2022-12-05T08:40:35;7.20;74.70
76269;DHT22;65088;52.352;4.846;2022-12-05T08:43:07;7.20;74.70
76269;DHT22;65088;52.352;4.846;2022-12-05T08:45:36;7.20;74.80
76269;DHT22;65088;52.352;4.846;2022-12-05T08:48:06;7.20;74.80
76269;DHT22;65088;52.352;4.846;2022-12-05T08:50:38;7.20;74.90
76269;DHT22;65088;52.352;4.846;2022-12-05T08:53:08;7.20;74.90
76269;DHT22;65088;52.352;4.846;2022-12-05T08:55:37;7.20;74.80
76269;DHT22;65088;52.352;4.846;2022-12-05T08:58:09;7.20;74.90
76269;DHT22;65088;52.352;4.846;2022-12-05T09:00:39;7.20;74.90
76269;DHT22;65088;52.352;4.846;2022-12-05T09:03:10;7.30;74.80
76269;DHT22;65088;52.352;4.846;2022-12-05T09:05:40;7.30;74.70
76269;DHT22;65088;52.352;4.846;2022-12-05T09:08:12;7.30;74.80
76269;DHT22;65088;52.352;4.846;2022-12-05T09:10:41;7.30;74.80
76269;DHT22;65088;52.352;4.846;2022-12-05T09:13:13;7.30;74.80
76269;DHT22;65088;52.352;4.846;2022-12-05T09:15:43;7.30;74.80
76269;DHT22;65088;52.352;4.846;2022-12-05T09:18:15;7.30;74.80
76269;DHT22;65088;52.352;4.846;2022-12-05T09:20:45;7.30;74.80
76269;DHT22;65088;52.352;4.846;2022-12-05T09:23:15;7.30;74.70
76269;DHT22;65088;52.352;4.846;2022-12-05T09:25:44;7.30;74.70
76269;DHT22;65088;52.352;4.846;2022-12-05T09:28:16;7.40;74.80
76269;DHT22;65088;52.352;4.846;2022-12-05T09:30:55;7.40;74.70
76269;DHT22;65088;52.352;4.846;2022-12-05T09:33:24;7.40;74.60
76269;DHT22;65088;52.352;4.846;2022-12-05T09:35:56;7.50;74.60
76269;DHT22;65088;52.352;4.846;2022-12-05T09:38:26;7.50;74.60
76269;DHT22;65088;52.352;4.846;2022-12-05T09:41:06;7.50;74.50
76269;DHT22;65088;52.352;4.846;2022-12-05T09:43:47;7.50;74.60
76269;DHT22;65088;52.352;4.846;2022-12-05T09:46:25;7.60;74.50
76269;DHT22;65088;52.352;4.846;2022-12-05T09:48:58;7.60;74.50
76269;DHT22;65088;52.352;4.846;2022-12-05T09:51:28;7.50;74.40
76269;DHT22;65088;52.352;4.846;2022-12-05T09:53:57;7.50;74.50
76269;DHT22;65088;52.352;4.846;2022-12-05T09:56:29;7.50;74.50
76269;DHT22;65088;52.352;4.846;2022-12-05T09:59:01;7.40;74.70
76269;DHT22;65088;52.352;4.846;2022-12-05T10:01:37;7.40;74.80
76269;DHT22;65088;52.352;4.846;2022-12-05T10:04:42;7.30;74.90
76269;DHT22;65088;52.352;4.846;2022-12-05T10:07:19;7.30;75.10
76269;DHT22;65088;52.352;4.846;2022-12-05T10:09:59;7.30;75.20
76269;DHT22;65088;52.352;4.846;2022-12-05T10:12:35;7.30;75.20
76269;DHT22;65088;52.352;4.846;2022-12-05T10:15:17;7.30;75.30
76269;DHT22;65088;52.352;4.846;2022-12-05T10:17:51;7.30;75.30
76269;DHT22;65088;52.352;4.846;2022-12-05T10:20:27;7.30;75.30
76269;DHT22;65088;52.352;4.846;2022-12-05T10:23:01;7.30;75.40
76269;DHT22;65088;52.352;4.846;2022-12-05T10:25:33;7.30;75.50
76269;DHT22;65088;52.352;4.846;2022-12-05T10:28:09;7.40;75.40
76269;DHT22;65088;52.352;4.846;2022-12-05T10:30:46;7.40;75.30
76269;DHT22;65088;52.352;4.846;2022-12-05T10:33:20;7.40;75.20
76269;DHT22;65088;52.352;4.846;2022-12-05T10:35:50;7.50;75.20
76269;DHT22;65088;52.352;4.846;2022-12-05T10:38:23;7.50;75.10
76269;DHT22;65088;52.352;4.846;2022-12-05T10:40:58;7.50;75.00
76269;DHT22;65088;52.352;4.846;2022-12-05T10:43:31;7.60;75.00
76269;DHT22;65088;52.352;4.846;2022-12-05T10:46:05;7.60;74.90
76269;DHT22;65088;52.352;4.846;2022-12-05T10:48:36;7.60;74.90
76269;DHT22;65088;52.352;4.846;2022-12-05T10:51:12;7.60;74.90
76269;DHT22;65088;52.352;4.846;2022-12-05T10:53:43;7.60;74.90
76269;DHT22;65088;52.352;4.846;2022-12-05T10:56:42;7.60;74.90
76269;DHT22;65088;52.352;4.846;2022-12-05T10:59:13;7.70;75.00
76269;DHT22;65088;52.352;4.846;2022-12-05T11:01:47;7.70;74.90
76269;DHT22;65088;52.352;4.846;2022-12-05T11:04:24;7.70;74.90
76269;DHT22;65088;52.352;4.846;2022-12-05T11:06:57;7.70;74.90
76269;DHT22;65088;52.352;4.846;2022-12-05T11:09:29;7.80;74.90
76269;DHT22;65088;52.352;4.846;2022-12-05T11:12:14;7.80;74.80
76269;DHT22;65088;52.352;4.846;2022-12-05T11:14:57;7.80;74.70
76269;DHT22;65088;52.352;4.846;2022-12-05T11:17:31;7.80;74.80
76269;DHT22;65088;52.352;4.846;2022-12-05T11:20:34;7.90;74.60
76269;DHT22;65088;52.352;4.846;2022-12-05T11:22:52;7.80;74.60
76269;DHT22;65088;52.352;4.846;2022-12-05T11:25:27;7.80;74.60
76269;DHT22;65088;52.352;4.846;2022-12-05T11:27:59;7.80;74.60
76269;DHT22;65088;52.352;4.846;2022-12-05T11:30:29;7.80;74.50
76269;DHT22;65088;52.352;4.846;2022-12-05T11:33:19;7.80;74.50
76269;DHT22;65088;52.352;4.846;2022-12-05T11:35:49;7.80;74.50
76269;DHT22;65088;52.352;4.846;2022-12-05T11:38:23;7.90;74.40
76269;DHT22;65088;52.352;4.846;2022-12-05T11:40:59;7.90;74.30
76269;DHT22;65088;52.352;4.846;2022-12-05T11:43:47;8.00;74.20
76269;DHT22;65088;52.352;4.846;2022-12-05T11:46:25;8.00;74.10
76269;DHT22;65088;52.352;4.846;2022-12-05T11:49:11;8.00;74.10
76269;DHT22;65088;52.352;4.846;2022-12-05T11:51:47;8.00;74.00
76269;DHT22;65088;52.352;4.846;2022-12-05T11:54:45;8.00;74.00
76269;DHT22;65088;52.352;4.846;2022-12-05T11:57:26;8.10;73.90
76269;DHT22;65088;52.352;4.846;2022-12-05T12:00:18;8.10;73.90
76269;DHT22;65088;52.352;4.846;2022-12-05T12:06:19;8.20;73.80
76269;DHT22;65088;52.352;4.846;2022-12-05T12:09:06;8.20;73.90
76269;DHT22;65088;52.352;4.846;2022-12-05T12:11:44;8.30;73.50
76269;DHT22;65088;52.352;4.846;2022-12-05T12:14:22;8.30;73.60
76269;DHT22;65088;52.352;4.846;2022-12-05T12:17:02;8.30;73.50
76269;DHT22;65088;52.352;4.846;2022-12-05T12:19:49;8.30;73.20
76269;DHT22;65088;52.352;4.846;2022-12-05T12:22:42;8.30;73.20
76269;DHT22;65088;52.352;4.846;2022-12-05T12:25:26;8.30;73.10
76269;DHT22;65088;52.352;4.846;2022-12-05T12:28:10;8.30;73.20
76269;DHT22;65088;52.352;4.846;2022-12-05T12:30:53;8.30;73.20
76269;DHT22;65088;52.352;4.846;2022-12-05T12:33:31;8.30;73.20
76269;DHT22;65088;52.352;4.846;2022-12-05T12:36:12;8.30;73.10
76269;DHT22;65088;52.352;4.846;2022-12-05T12:42:01;8.20;73.10
76269;DHT22;65088;52.352;4.846;2022-12-05T12:47:45;8.30;73.10
76269;DHT22;65088;52.352;4.846;2022-12-05T12:50:21;8.30;73.20
76269;DHT22;65088;52.352;4.846;2022-12-05T12:53:07;8.30;73.10
76269;DHT22;65088;52.352;4.846;2022-12-05T12:55:52;8.30;73.00
76269;DHT22;65088;52.352;4.846;2022-12-05T12:58:38;8.30;73.10
76269;DHT22;65088;52.352;4.846;2022-12-05T13:01:16;8.30;73.00
76269;DHT22;65088;52.352;4.846;2022-12-05T13:03:55;8.30;73.00
76269;DHT22;65088;52.352;4.846;2022-12-05T13:06:30;8.30;73.00
76269;DHT22;65088;52.352;4.846;2022-12-05T13:09:05;8.30;72.90
76269;DHT22;65088;52.352;4.846;2022-12-05T13:11:40;8.30;72.90
76269;DHT22;65088;52.352;4.846;2022-12-05T13:14:12;8.20;73.00
76269;DHT22;65088;52.352;4.846;2022-12-05T13:16:48;8.20;73.00
76269;DHT22;65088;52.352;4.846;2022-12-05T13:19:26;8.20;73.10
76269;DHT22;65088;52.352;4.846;2022-12-05T13:22:04;8.20;73.20
76269;DHT22;65088;52.352;4.846;2022-12-05T13:24:34;8.20;73.10
76269;DHT22;65088;52.352;4.846;2022-12-05T13:27:08;8.10;73.30
76269;DHT22;65088;52.352;4.846;2022-12-05T13:29:46;8.20;73.20
76269;DHT22;65088;52.352;4.846;2022-12-05T13:32:30;8.10;73.30
76269;DHT22;65088;52.352;4.846;2022-12-05T13:35:02;8.10;73.30
76269;DHT22;65088;52.352;4.846;2022-12-05T13:37:44;8.10;73.40
76269;DHT22;65088;52.352;4.846;2022-12-05T13:40:29;8.10;73.50
76269;DHT22;65088;52.352;4.846;2022-12-05T13:43:16;8.10;73.60
76269;DHT22;65088;52.352;4.846;2022-12-05T13:46:01;8.00;73.60
76269;DHT22;65088;52.352;4.846;2022-12-05T13:48:35;8.00;73.80
76269;DHT22;65088;52.352;4.846;2022-12-05T13:51:07;7.90;74.00
76269;DHT22;65088;52.352;4.846;2022-12-05T13:53:40;7.90;74.10
76269;DHT22;65088;52.352;4.846;2022-12-05T13:56:25;7.80;74.30
76269;DHT22;65088;52.352;4.846;2022-12-05T13:58:58;7.80;74.40
76269;DHT22;65088;52.352;4.846;2022-12-05T14:01:44;7.80;74.50
76269;DHT22;65088;52.352;4.846;2022-12-05T14:04:42;7.80;74.60
76269;DHT22;65088;52.352;4.846;2022-12-05T14:07:37;7.80;74.60
76269;DHT22;65088;52.352;4.846;2022-12-05T14:10:09;7.90;74.70
76269;DHT22;65088;52.352;4.846;2022-12-05T14:12:48;7.90;74.60
76269;DHT22;65088;52.352;4.846;2022-12-05T14:15:33;7.90;74.80
76269;DHT22;65088;52.352;4.846;2022-12-05T14:18:14;7.90;74.80
76269;DHT22;65088;52.352;4.846;2022-12-05T14:20:57;7.90;74.80
76269;DHT22;65088;52.352;4.846;2022-12-05T14:23:46;7.90;74.80
76269;DHT22;65088;52.352;4.846;2022-12-05T14:26:29;7.80;74.90
76269;DHT22;65088;52.352;4.846;2022-12-05T14:29:23;7.80;74.90
76269;DHT22;65088;52.352;4.846;2022-12-05T14:32:07;7.80;75.00
76269;DHT22;65088;52.352;4.846;2022-12-05T14:34:48;7.70;75.10
76269;DHT22;65088;52.352;4.846;2022-12-05T14:37:26;7.70;75.10
76269;DHT22;65088;52.352;4.846;2022-12-05T14:39:58;7.70;75.20
76269;DHT22;65088;52.352;4.846;2022-12-05T14:42:37;7.70;75.30
76269;DHT22;65088;52.352;4.846;2022-12-05T14:45:27;7.70;75.30
76269;DHT22;65088;52.352;4.846;2022-12-05T14:48:00;7.70;75.40
76269;DHT22;65088;52.352;4.846;2022-12-05T14:50:45;7.60;75.50
76269;DHT22;65088;52.352;4.846;2022-12-05T14:53:35;7.60;75.70
76269;DHT22;65088;52.352;4.846;2022-12-05T14:56:17;7.50;75.80
76269;DHT22;65088;52.352;4.846;2022-12-05T14:58:51;7.50;75.90
76269;DHT22;65088;52.352;4.846;2022-12-05T15:01:24;7.40;76.00
76269;DHT22;65088;52.352;4.846;2022-12-05T15:04:14;7.40;76.20
76269;DHT22;65088;52.352;4.846;2022-12-05T15:06:48;7.40;76.30
76269;DHT22;65088;52.352;4.846;2022-12-05T15:09:34;7.30;76.40
76269;DHT22;65088;52.352;4.846;2022-12-05T15:12:12;7.30;76.50
76269;DHT22;65088;52.352;4.846;2022-12-05T15:14:51;7.20;76.60
76269;DHT22;65088;52.352;4.846;2022-12-05T15:17:26;7.20;76.80
76269;DHT22;65088;52.352;4.846;2022-12-05T15:20:03;7.10;76.90
76269;DHT22;65088;52.352;4.846;2022-12-05T15:22:35;7.10;77.00
76269;DHT22;65088;52.352;4.846;2022-12-05T15:25:21;7.10;77.10
76269;DHT22;65088;52.352;4.846;2022-12-05T15:27:57;7.10;77.20
76269;DHT22;65088;52.352;4.846;2022-12-05T15:30:27;7.10;77.20
76269;DHT22;65088;52.352;4.846;2022-12-05T15:32:58;7.00;77.30
76269;DHT22;65088;52.352;4.846;2022-12-05T15:35:31;7.10;77.40
76269;DHT22;65088;52.352;4.846;2022-12-05T15:38:06;7.10;77.30
76269;DHT22;65088;52.352;4.846;2022-12-05T15:40:44;7.10;77.30
76269;DHT22;65088;52.352;4.846;2022-12-05T15:43:27;7.10;77.40
76269;DHT22;65088;52.352;4.846;2022-12-05T15:46:17;7.10;77.30
76269;DHT22;65088;52.352;4.846;2022-12-05T15:48:49;7.10;77.50
76269;DHT22;65088;52.352;4.846;2022-12-05T15:51:26;7.10;77.50
76269;DHT22;65088;52.352;4.846;2022-12-05T15:54:04;7.00;77.50
76269;DHT22;65088;52.352;4.846;2022-12-05T15:56:39;7.00;77.50
76269;DHT22;65088;52.352;4.846;2022-12-05T15:59:17;7.00;77.60
76269;DHT22;65088;52.352;4.846;2022-12-05T16:01:55;7.00;77.60
76269;DHT22;65088;52.352;4.846;2022-12-05T16:04:29;7.00;77.60
76269;DHT22;65088;52.352;4.846;2022-12-05T16:07:05;7.00;77.60
76269;DHT22;65088;52.352;4.846;2022-12-05T16:09:39;7.00;77.60
76269;DHT22;65088;52.352;4.846;2022-12-05T16:12:23;7.00;77.60
76269;DHT22;65088;52.352;4.846;2022-12-05T16:14:55;7.00;77.60
76269;DHT22;65088;52.352;4.846;2022-12-05T16:17:29;7.00;77.60
76269;DHT22;65088;52.352;4.846;2022-12-05T16:20:23;7.00;77.70
76269;DHT22;65088;52.352;4.846;2022-12-05T16:23:02;7.10;77.70
76269;DHT22;65088;52.352;4.846;2022-12-05T16:25:33;7.10;77.60
76269;DHT22;65088;52.352;4.846;2022-12-05T16:28:15;7.10;77.60
76269;DHT22;65088;52.352;4.846;2022-12-05T16:30:56;7.10;77.60
76269;DHT22;65088;52.352;4.846;2022-12-05T16:33:28;7.10;77.60
76269;DHT22;65088;52.352;4.846;2022-12-05T16:36:07;7.10;77.60
76269;DHT22;65088;52.352;4.846;2022-12-05T16:38:39;7.10;77.60
76269;DHT22;65088;52.352;4.846;2022-12-05T16:41:10;7.20;77.60